Time;durP1;ratioP1;P1;durP2;ratioP2;P2;SDS_P1;SDS_P2;PMS_P1;PMS_P2;Temp;Humidity;BMP_temperature;BMP_pressure;BME280_temperature;BME280_humidity;BME280_pressure;Samples;Min_cycle;Max_cycle;Signal;HPM_P1;HPM_P2
2021/05/08 00:00:51;;;;;;;20.80;14.90;;;;;;;;;;4348191;33;20135;-73
2021/05/08 00:03:16;;;;;;;21.70;15.27;;;;;;;;;;4348023;33;20686;-73
2021/05/08 00:05:41;;;;;;;24.95;16.52;;;;;;;;;;4333463;33;20498;-72
2021/05/08 00:08:07;;;;;;;23.77;15.70;;;;;;;;;;4348047;33;20148;-72
2021/05/08 00:10:32;;;;;;;24.57;16.43;;;;;;;;;;4347010;33;20529;-73
2021/05/08 00:12:57;;;;;;;25.80;16.80;;;;;;;;;;4346301;33;20194;-72
2021/05/08 00:15:25;;;;;;;25.20;16.73;;;;;;;;;;4346074;33;20541;-72
2021/05/08 00:17:50;;;;;;;26.13;16.80;;;;;;;;;;4347636;33;20185;-72
2021/05/08 00:20:15;;;;;;;26.03;16.90;;;;;;;;;;4346234;33;20139;-72
2021/05/08 00:22:41;;;;;;;28.57;18.10;;;;;;;;;;4345977;33;20132;-73
2021/05/08 00:25:07;;;;;;;27.43;17.87;;;;;;;;;;4332948;33;20171;-73
2021/05/08 00:27:33;;;;;;;26.90;17.97;;;;;;;;;;4347261;33;20196;-73
2021/05/08 00:29:58;;;;;;;30.67;18.77;;;;;;;;;;4347443;33;20143;-73
2021/05/08 00:32:23;;;;;;;29.47;19.00;;;;;;;;;;4346418;33;20157;-73
2021/05/08 00:34:48;;;;;;;27.30;18.13;;;;;;;;;;4346228;33;20220;-73
2021/05/08 00:37:13;;;;;;;28.47;18.67;;;;;;;;;;4347332;33;20154;-73
2021/05/08 00:39:38;;;;;;;29.93;18.27;;;;;;;;;;4358472;32;20197;-73
2021/05/08 00:42:04;;;;;;;27.63;17.30;;;;;;;;;;4348742;32;20570;-73
2021/05/08 00:44:29;;;;;;;29.03;18.57;;;;;;;;;;4361694;32;20224;-72
2021/05/08 00:46:54;;;;;;;29.33;19.00;;;;;;;;;;4360764;33;20138;-73
2021/05/08 00:49:21;;;;;;;33.27;19.63;;;;;;;;;;4362399;32;20208;-73
2021/05/08 00:51:46;;;;;;;29.27;20.60;;;;;;;;;;4347068;33;20156;-72
2021/05/08 00:54:11;;;;;;;27.03;17.33;;;;;;;;;;4360980;32;20246;-73
2021/05/08 00:56:36;;;;;;;28.15;17.58;;;;;;;;;;4360883;32;20162;-73
2021/05/08 00:59:02;;;;;;;31.57;18.23;;;;;;;;;;4361812;32;20143;-73
2021/05/08 01:01:27;;;;;;;29.57;18.13;;;;;;;;;;4360177;33;20166;-73
2021/05/08 01:03:52;;;;;;;28.43;18.80;;;;;;;;;;4361927;32;20174;-73
2021/05/08 01:06:17;;;;;;;29.23;18.43;;;;;;;;;;4362565;32;20206;-73
2021/05/08 01:08:42;;;;;;;29.90;18.93;;;;;;;;;;4361803;32;20130;-73
2021/05/08 01:11:08;;;;;;;31.83;18.37;;;;;;;;;;4362274;32;20454;-72
2021/05/08 01:13:34;;;;;;;29.93;18.50;;;;;;;;;;4360903;32;20177;-72
2021/05/08 02:17:00;;;;;;;23.90;16.00;;;;;;;;;;4346883;33;20178;-73
2021/05/08 02:19:25;;;;;;;26.73;16.37;;;;;;;;;;4348553;33;20135;-74
2021/05/08 02:21:51;;;;;;;31.10;17.40;;;;;;;;;;4347699;33;20206;-74
2021/05/08 02:24:16;;;;;;;28.63;16.77;;;;;;;;;;4349263;33;20702;-73
2021/05/08 02:26:41;;;;;;;30.70;16.83;;;;;;;;;;4335902;33;20589;-73
2021/05/08 02:29:06;;;;;;;24.83;15.63;;;;;;;;;;4348908;33;20681;-73
2021/05/08 02:31:31;;;;;;;30.57;16.27;;;;;;;;;;4349980;33;20150;-74
2021/05/08 02:33:57;;;;;;;28.60;17.30;;;;;;;;;;4349704;33;20182;-73
2021/05/08 02:36:22;;;;;;;26.77;17.47;;;;;;;;;;4349774;33;20553;-73
2021/05/08 02:38:47;;;;;;;27.83;16.63;;;;;;;;;;4349208;33;20166;-73
2021/05/08 02:41:12;;;;;;;28.93;15.73;;;;;;;;;;4349276;33;20217;-73
2021/05/08 02:43:37;;;;;;;24.77;16.27;;;;;;;;;;4348114;33;20135;-73
2021/05/08 02:46:02;;;;;;;27.25;16.87;;;;;;;;;;4349201;33;20132;-73
2021/05/08 02:48:27;;;;;;;29.60;17.43;;;;;;;;;;4349443;33;20462;-72
2021/05/08 02:50:53;;;;;;;27.67;16.87;;;;;;;;;;4347542;33;20151;-73
2021/05/08 02:53:18;;;;;;;26.95;15.82;;;;;;;;;;4333978;33;20638;-73
2021/05/08 02:55:43;;;;;;;27.07;16.63;;;;;;;;;;4347238;33;20162;-74
2021/05/08 02:58:08;;;;;;;26.77;16.25;;;;;;;;;;4347261;33;20229;-73
2021/05/08 03:00:33;;;;;;;26.90;16.58;;;;;;;;;;4349562;33;20541;-74
2021/05/08 03:02:58;;;;;;;24.40;15.97;;;;;;;;;;4335482;33;20163;-73
2021/05/08 03:05:24;;;;;;;28.63;17.10;;;;;;;;;;4347227;33;20155;-72
2021/05/08 03:07:49;;;;;;;25.43;15.17;;;;;;;;;;4347418;33;20229;-73
2021/05/08 03:10:14;;;;;;;25.30;15.80;;;;;;;;;;4335381;33;20198;-74
2021/05/08 03:12:39;;;;;;;28.60;16.13;;;;;;;;;;4349457;33;20409;-74
2021/05/08 03:15:05;;;;;;;24.27;16.00;;;;;;;;;;4347289;33;20162;-74
2021/05/08 03:17:30;;;;;;;27.00;16.00;;;;;;;;;;4347933;33;20156;-73
2021/05/08 03:19:55;;;;;;;25.60;15.17;;;;;;;;;;4348899;33;20194;-73
2021/05/08 03:22:20;;;;;;;26.07;15.80;;;;;;;;;;4335251;33;20229;-74
2021/05/08 03:24:46;;;;;;;24.17;14.97;;;;;;;;;;4335237;33;20244;-73
2021/05/08 03:27:11;;;;;;;26.87;15.63;;;;;;;;;;4347130;33;20128;-74
2021/05/08 03:29:36;;;;;;;22.60;14.17;;;;;;;;;;4347272;33;20544;-73
2021/05/08 03:32:01;;;;;;;22.93;14.73;;;;;;;;;;4334752;33;20584;-73
2021/05/08 03:34:27;;;;;;;21.10;14.00;;;;;;;;;;4348328;33;20255;-74
2021/05/08 03:36:52;;;;;;;21.20;14.07;;;;;;;;;;4334901;33;20164;-73
2021/05/08 03:39:17;;;;;;;21.13;13.70;;;;;;;;;;4348308;33;20136;-73
2021/05/08 03:41:42;;;;;;;21.83;13.73;;;;;;;;;;4348239;33;20154;-73
2021/05/08 03:44:07;;;;;;;21.90;14.13;;;;;;;;;;4346622;33;20193;-73
2021/05/08 03:46:33;;;;;;;20.70;12.73;;;;;;;;;;4333316;33;20155;-73
2021/05/08 03:48:58;;;;;;;23.90;14.50;;;;;;;;;;4346744;33;20136;-73
2021/05/08 03:51:24;;;;;;;21.20;13.30;;;;;;;;;;4348747;33;20504;-73
2021/05/08 03:53:49;;;;;;;23.27;13.30;;;;;;;;;;4348080;33;20135;-73
2021/05/08 03:56:14;;;;;;;19.63;12.83;;;;;;;;;;4347372;33;20124;-73
2021/05/08 03:58:39;;;;;;;22.43;13.23;;;;;;;;;;4332799;33;20185;-73
2021/05/08 04:01:04;;;;;;;19.17;11.73;;;;;;;;;;4353137;33;20166;-73
2021/05/08 04:03:29;;;;;;;21.37;12.50;;;;;;;;;;4345559;33;20163;-73
2021/05/08 04:05:55;;;;;;;20.37;11.90;;;;;;;;;;4348143;33;20299;-73
2021/05/08 04:08:20;;;;;;;22.13;12.27;;;;;;;;;;4353771;33;20231;-73
2021/05/08 04:10:48;;;;;;;20.57;12.17;;;;;;;;;;4362685;32;20422;-73
2021/05/08 04:13:14;;;;;;;18.63;11.73;;;;;;;;;;4362879;32;20178;-74
2021/05/08 04:15:39;;;;;;;16.70;11.53;;;;;;;;;;4361581;32;20131;-72
2021/05/08 04:18:04;;;;;;;18.80;11.80;;;;;;;;;;4347567;32;20167;-72
2021/05/08 04:20:30;;;;;;;21.00;12.07;;;;;;;;;;4361355;32;20153;-72
2021/05/08 04:22:55;;;;;;;17.27;11.00;;;;;;;;;;4362346;32;20470;-73
2021/05/08 04:25:20;;;;;;;16.23;10.87;;;;;;;;;;4360800;33;20608;-73
2021/05/08 04:27:45;;;;;;;19.17;11.30;;;;;;;;;;4362320;32;20202;-73
2021/05/08 04:30:11;;;;;;;16.13;9.90;;;;;;;;;;4362393;32;20135;-73
2021/05/08 04:32:36;;;;;;;17.67;10.07;;;;;;;;;;4361272;32;20254;-72
2021/05/08 04:35:01;;;;;;;18.97;12.07;;;;;;;;;;4348828;32;20163;-73
2021/05/08 04:37:26;;;;;;;16.27;9.70;;;;;;;;;;4361082;32;20576;-72
2021/05/08 04:39:51;;;;;;;17.07;9.40;;;;;;;;;;4360480;32;20246;-73
2021/05/08 04:42:16;;;;;;;13.90;8.90;;;;;;;;;;4361303;32;20205;-73
2021/05/08 04:44:42;;;;;;;14.20;8.80;;;;;;;;;;4362584;32;20458;-73
2021/05/08 04:47:07;;;;;;;16.10;9.23;;;;;;;;;;4362816;32;20175;-73
2021/05/08 04:49:32;;;;;;;15.30;9.30;;;;;;;;;;4362667;32;20131;-73
2021/05/08 04:51:57;;;;;;;14.27;8.77;;;;;;;;;;4362199;32;20135;-73
2021/05/08 04:54:23;;;;;;;12.77;8.30;;;;;;;;;;4361035;32;20437;-73
2021/05/08 04:56:48;;;;;;;14.20;9.03;;;;;;;;;;4360551;33;20494;-73
2021/05/08 04:59:14;;;;;;;12.20;8.40;;;;;;;;;;4362147;32;20143;-73
2021/05/08 05:01:39;;;;;;;16.27;8.23;;;;;;;;;;4361870;32;20135;-72
2021/05/08 05:04:04;;;;;;;10.80;7.43;;;;;;;;;;4360677;32;20127;-72
2021/05/08 05:06:29;;;;;;;10.03;7.57;;;;;;;;;;4361828;32;20143;-73
2021/05/08 05:08:55;;;;;;;12.13;7.43;;;;;;;;;;4360520;33;20169;-73
2021/05/08 05:11:22;;;;;;;13.50;7.50;;;;;;;;;;4360296;33;20529;-72
2021/05/08 05:13:47;;;;;;;12.27;7.30;;;;;;;;;;4348267;32;20159;-73
2021/05/08 05:16:12;;;;;;;11.57;7.20;;;;;;;;;;4361709;32;20540;-73
2021/05/08 05:18:37;;;;;;;12.90;7.37;;;;;;;;;;4359757;33;20182;-73
2021/05/08 05:21:03;;;;;;;12.80;7.57;;;;;;;;;;4361748;32;20127;-73
2021/05/08 05:23:28;;;;;;;39.47;31.23;;;;;;;;;;4361596;32;20318;-73
2021/05/08 05:25:53;;;;;;;12.67;8.37;;;;;;;;;;4361159;32;20154;-73
2021/05/08 05:28:19;;;;;;;13.87;7.93;;;;;;;;;;4361459;32;20127;-73
2021/05/08 05:30:45;;;;;;;10.87;7.47;;;;;;;;;;4361484;32;20131;-73
2021/05/08 05:33:10;;;;;;;12.00;7.83;;;;;;;;;;4359922;33;20127;-73
2021/05/08 05:35:35;;;;;;;12.77;7.90;;;;;;;;;;4360651;32;20158;-73
2021/05/08 05:38:00;;;;;;;11.50;7.47;;;;;;;;;;4359821;33;20228;-73
2021/05/08 05:40:25;;;;;;;11.60;6.93;;;;;;;;;;4361328;32;20183;-73
2021/05/08 05:42:50;;;;;;;10.13;7.80;;;;;;;;;;4360277;33;20254;-73
2021/05/08 05:45:16;;;;;;;14.80;7.57;;;;;;;;;;4347896;33;20193;-73
2021/05/08 05:47:41;;;;;;;12.77;7.43;;;;;;;;;;4348016;33;20209;-73
2021/05/08 05:50:07;;;;;;;10.83;7.67;;;;;;;;;;4347943;33;20597;-73
2021/05/08 05:52:32;;;;;;;11.97;7.97;;;;;;;;;;4359723;33;20155;-73
2021/05/08 05:54:57;;;;;;;13.47;8.50;;;;;;;;;;4361152;33;20248;-73
2021/05/08 05:57:22;;;;;;;12.43;7.30;;;;;;;;;;4361438;33;20255;-73
2021/05/08 05:59:47;;;;;;;11.55;7.95;;;;;;;;;;4361379;33;20226;-73
2021/05/08 06:02:12;;;;;;;13.27;7.83;;;;;;;;;;4361420;33;20169;-74
2021/05/08 06:04:38;;;;;;;14.57;8.53;;;;;;;;;;4361553;33;20185;-73
2021/05/08 06:07:03;;;;;;;12.40;7.70;;;;;;;;;;4361509;33;20201;-74
2021/05/08 06:09:29;;;;;;;14.10;8.13;;;;;;;;;;4360227;33;20542;-74
2021/05/08 06:11:55;;;;;;;14.33;7.97;;;;;;;;;;4345911;33;20155;-74
2021/05/08 06:14:20;;;;;;;14.63;8.27;;;;;;;;;;4346161;33;20155;-73
2021/05/08 06:16:46;;;;;;;12.77;7.90;;;;;;;;;;4346225;33;20178;-73
2021/05/08 06:19:11;;;;;;;15.00;7.93;;;;;;;;;;4361357;33;20162;-73
2021/05/08 06:21:38;;;;;;;12.27;7.70;;;;;;;;;;4346219;33;20241;-73
2021/05/08 06:24:04;;;;;;;11.73;7.43;;;;;;;;;;4361485;33;20131;-74
2021/05/08 06:26:29;;;;;;;12.40;7.67;;;;;;;;;;4346211;33;20232;-73
2021/05/08 06:28:54;;;;;;;12.87;7.70;;;;;;;;;;4361284;33;20293;-73
2021/05/08 06:31:19;;;;;;;11.45;7.47;;;;;;;;;;4360073;33;20498;-74
2021/05/08 06:33:52;;;;;;;12.47;8.30;;;;;;;;;;4362494;33;20228;-73
2021/05/08 06:36:18;;;;;;;16.63;8.03;;;;;;;;;;4363610;33;20306;-73
2021/05/08 06:38:43;;;;;;;11.20;8.17;;;;;;;;;;4363762;33;20143;-74
2021/05/08 06:41:08;;;;;;;13.30;8.60;;;;;;;;;;4362601;32;20158;-73
2021/05/08 06:43:33;;;;;;;11.13;7.77;;;;;;;;;;4364428;33;20564;-73
2021/05/08 06:45:58;;;;;;;16.73;8.27;;;;;;;;;;4365088;32;20214;-74
2021/05/08 06:48:23;;;;;;;13.10;8.30;;;;;;;;;;4362543;32;20139;-73
2021/05/08 06:50:49;;;;;;;12.93;7.93;;;;;;;;;;4363034;32;20293;-73
2021/05/08 06:53:14;;;;;;;13.50;7.53;;;;;;;;;;4357027;32;20248;-74
2021/05/08 06:55:39;;;;;;;11.07;7.97;;;;;;;;;;4333687;33;20163;-74
2021/05/08 06:58:04;;;;;;;12.65;7.85;;;;;;;;;;4346185;33;20611;-74
2021/05/08 07:00:30;;;;;;;14.10;8.83;;;;;;;;;;4333625;33;20256;-73
2021/05/08 07:02:55;;;;;;;13.97;8.50;;;;;;;;;;4349248;32;20639;-74
2021/05/08 07:05:20;;;;;;;11.50;7.70;;;;;;;;;;4362726;32;20178;-74
2021/05/08 07:07:45;;;;;;;14.00;8.70;;;;;;;;;;4361989;32;20127;-73
2021/05/08 07:10:10;;;;;;;12.13;8.13;;;;;;;;;;4363195;32;20162;-73
2021/05/08 07:12:35;;;;;;;10.67;7.37;;;;;;;;;;4363404;32;20143;-73
2021/05/08 07:15:01;;;;;;;16.73;8.60;;;;;;;;;;4361622;32;20529;-74
2021/05/08 07:17:26;;;;;;;12.40;7.93;;;;;;;;;;4348951;33;20193;-73
2021/05/08 07:19:51;;;;;;;15.90;8.20;;;;;;;;;;4362282;32;20239;-73
2021/05/08 07:22:16;;;;;;;11.90;8.17;;;;;;;;;;4361390;32;20615;-74
2021/05/08 07:24:42;;;;;;;14.93;8.00;;;;;;;;;;4363172;32;20186;-74
2021/05/08 07:27:07;;;;;;;12.88;8.43;;;;;;;;;;4360050;33;20276;-73
2021/05/08 07:29:32;;;;;;;13.23;8.33;;;;;;;;;;4345723;33;20578;-73
2021/05/08 07:31:59;;;;;;;13.63;8.90;;;;;;;;;;4346753;33;20608;-74
2021/05/08 07:34:24;;;;;;;16.23;8.63;;;;;;;;;;4340108;33;20166;-73
2021/05/08 07:36:49;;;;;;;14.63;8.63;;;;;;;;;;4362300;32;20127;-73
2021/05/08 07:39:14;;;;;;;13.77;8.80;;;;;;;;;;4361236;33;20159;-73
2021/05/08 07:41:39;;;;;;;13.07;8.48;;;;;;;;;;4363022;32;20262;-73
2021/05/08 07:44:05;;;;;;;13.25;8.07;;;;;;;;;;4362821;32;20637;-74
2021/05/08 07:46:30;;;;;;;11.87;8.50;;;;;;;;;;4360348;33;20153;-74
2021/05/08 07:48:56;;;;;;;11.30;8.27;;;;;;;;;;4360503;33;20165;-73
2021/05/08 07:51:21;;;;;;;13.00;8.25;;;;;;;;;;4360885;32;20206;-74
2021/05/08 07:53:46;;;;;;;13.95;8.15;;;;;;;;;;4359703;32;20550;-74
2021/05/08 07:56:11;;;;;;;10.77;7.97;;;;;;;;;;4360873;33;20228;-74
2021/05/08 07:58:36;;;;;;;18.33;8.33;;;;;;;;;;4346838;33;20246;-73
2021/05/08 08:01:02;;;;;;;12.65;8.15;;;;;;;;;;4346904;33;20159;-74
2021/05/08 08:03:27;;;;;;;13.48;7.87;;;;;;;;;;4362388;32;20534;-75
2021/05/08 08:05:52;;;;;;;11.82;7.15;;;;;;;;;;4360533;33;20429;-76
2021/05/08 08:08:17;;;;;;;14.80;7.72;;;;;;;;;;4346736;33;20282;-75
2021/05/08 08:10:42;;;;;;;14.77;7.85;;;;;;;;;;4361776;32;20282;-72
2021/05/08 08:13:07;;;;;;;12.93;7.28;;;;;;;;;;4346225;33;20159;-73
2021/05/08 08:15:33;;;;;;;10.52;7.15;;;;;;;;;;4361315;32;20127;-74
2021/05/08 08:17:58;;;;;;;13.25;8.10;;;;;;;;;;4361532;32;20151;-74
2021/05/08 08:20:23;;;;;;;10.40;6.93;;;;;;;;;;4360418;33;20143;-73
2021/05/08 08:22:48;;;;;;;11.77;7.40;;;;;;;;;;4361552;32;20227;-75
2021/05/08 08:25:14;;;;;;;10.15;6.62;;;;;;;;;;4362047;32;20254;-73
2021/05/08 08:27:40;;;;;;;10.73;7.70;;;;;;;;;;4360081;33;20258;-74
2021/05/08 08:30:07;;;;;;;10.27;6.43;;;;;;;;;;4345119;33;20190;-74
2021/05/08 08:32:32;;;;;;;10.20;6.72;;;;;;;;;;4345016;33;20223;-74
2021/05/08 08:34:57;;;;;;;10.30;6.37;;;;;;;;;;4345155;33;20159;-73
2021/05/08 08:37:22;;;;;;;13.90;7.15;;;;;;;;;;4346881;33;20224;-73
2021/05/08 08:39:47;;;;;;;12.82;6.62;;;;;;;;;;4331708;33;20193;-74
2021/05/08 08:42:13;;;;;;;11.45;6.15;;;;;;;;;;4333221;33;20183;-73
2021/05/08 08:44:38;;;;;;;10.23;5.80;;;;;;;;;;4331083;33;20163;-73
2021/05/08 08:47:04;;;;;;;9.70;6.10;;;;;;;;;;4345636;33;20128;-74
2021/05/08 08:49:29;;;;;;;10.30;6.47;;;;;;;;;;4347454;33;20139;-74
2021/05/08 08:51:54;;;;;;;9.35;5.80;;;;;;;;;;4347573;33;20144;-73
2021/05/08 08:54:20;;;;;;;8.98;5.68;;;;;;;;;;4348009;33;20135;-74
2021/05/08 08:56:46;;;;;;;10.13;5.80;;;;;;;;;;4345365;33;20127;-74
2021/05/08 08:59:33;;;;;;;10.98;5.10;;;;;;;;;;4344719;33;20166;-75
2021/05/08 09:01:58;;;;;;;11.23;5.30;;;;;;;;;;4345392;33;20217;-75
2021/05/08 09:04:23;;;;;;;15.32;6.62;;;;;;;;;;4345472;33;20131;-74
2021/05/08 09:06:48;;;;;;;8.77;5.50;;;;;;;;;;4344799;33;20492;-75
2021/05/08 09:09:15;;;;;;;7.75;5.10;;;;;;;;;;4346695;33;20228;-75
2021/05/08 09:11:50;;;;;;;5.97;4.75;;;;;;;;;;4346734;33;20170;-75
2021/05/08 09:14:16;;;;;;;9.05;5.50;;;;;;;;;;4346253;33;20132;-75
2021/05/08 09:16:59;;;;;;;9.80;5.85;;;;;;;;;;4345582;33;20161;-75
2021/05/08 09:19:25;;;;;;;9.10;5.43;;;;;;;;;;4332486;33;20545;-75
2021/05/08 09:21:50;;;;;;;9.45;5.43;;;;;;;;;;4346130;33;20231;-76
2021/05/08 09:24:15;;;;;;;9.88;5.40;;;;;;;;;;4346159;33;20609;-75
2021/05/08 09:26:42;;;;;;;9.50;5.05;;;;;;;;;;4344221;33;20138;-75
2021/05/08 09:29:17;;;;;;;6.82;4.80;;;;;;;;;;4344437;33;20679;-75
2021/05/08 09:31:52;;;;;;;9.20;4.97;;;;;;;;;;4331368;33;20201;-74
2021/05/08 09:34:18;;;;;;;11.40;5.75;;;;;;;;;;4346177;33;20639;-75
2021/05/08 09:36:50;;;;;;;8.70;4.30;;;;;;;;;;4346474;32;20155;-74
2021/05/08 09:39:31;;;;;;;8.13;5.20;;;;;;;;;;4344099;33;20226;-75
2021/05/08 09:41:57;;;;;;;8.00;4.90;;;;;;;;;;4356008;33;20462;-76
2021/05/08 09:44:22;;;;;;;8.95;4.87;;;;;;;;;;4347338;33;20158;-74
2021/05/08 09:46:47;;;;;;;7.85;4.50;;;;;;;;;;4359333;33;20203;-75
2021/05/08 09:49:14;;;;;;;8.45;4.40;;;;;;;;;;4359888;33;20138;-75
2021/05/08 09:51:39;;;;;;;7.43;4.50;;;;;;;;;;4358915;33;20151;-74
2021/05/08 09:54:15;;;;;;;6.32;4.35;;;;;;;;;;4360796;32;20460;-74
2021/05/08 09:56:50;;;;;;;7.22;4.45;;;;;;;;;;4345341;33;20706;-73
2021/05/08 09:59:25;;;;;;;6.85;4.25;;;;;;;;;;4346173;33;20176;-73
2021/05/08 10:02:10;;;;;;;6.40;4.18;;;;;;;;;;4344229;33;20134;-74
2021/05/08 10:04:37;;;;;;;5.60;4.10;;;;;;;;;;4346508;33;20155;-73
2021/05/08 10:07:23;;;;;;;8.73;4.78;;;;;;;;;;4345076;33;20468;-73
2021/05/08 10:09:49;;;;;;;6.32;4.70;;;;;;;;;;4343887;33;20195;-73
2021/05/08 10:12:15;;;;;;;6.60;4.70;;;;;;;;;;4345377;33;20139;-72
2021/05/08 10:14:42;;;;;;;8.13;5.10;;;;;;;;;;4346376;33;20140;-73
2021/05/08 10:17:08;;;;;;;8.02;4.70;;;;;;;;;;4346135;33;20460;-73
2021/05/08 10:19:34;;;;;;;7.05;5.07;;;;;;;;;;4334665;33;20237;-73
2021/05/08 10:22:02;;;;;;;9.02;5.78;;;;;;;;;;4348099;33;20151;-73
2021/05/08 10:24:28;;;;;;;10.48;6.60;;;;;;;;;;4349749;33;20519;-73
2021/05/08 10:26:58;;;;;;;8.07;5.67;;;;;;;;;;4347917;33;20132;-74
2021/05/08 10:29:30;;;;;;;8.38;5.12;;;;;;;;;;4348179;33;20132;-74
2021/05/08 10:31:58;;;;;;;9.63;5.70;;;;;;;;;;4348990;33;20199;-73
2021/05/08 10:34:30;;;;;;;9.07;5.18;;;;;;;;;;4347901;33;20162;-73
2021/05/08 10:37:04;;;;;;;9.40;5.40;;;;;;;;;;4348496;33;20218;-74
2021/05/08 10:39:46;;;;;;;12.27;5.93;;;;;;;;;;4334369;33;20205;-74
2021/05/08 10:42:11;;;;;;;7.62;4.97;;;;;;;;;;4344666;33;20163;-75
2021/05/08 10:44:45;;;;;;;12.43;8.65;;;;;;;;;;4362045;32;20123;-74
2021/05/08 10:47:14;;;;;;;8.60;5.62;;;;;;;;;;4361476;32;20222;-75
2021/05/08 10:49:39;;;;;;;8.82;5.72;;;;;;;;;;4361277;33;20508;-75
2021/05/08 10:52:05;;;;;;;11.75;7.03;;;;;;;;;;4362699;32;20181;-74
2021/05/08 10:54:39;;;;;;;8.82;5.40;;;;;;;;;;4362412;32;20594;-74
2021/05/08 10:57:14;;;;;;;8.88;6.00;;;;;;;;;;4361244;32;20444;-74
2021/05/08 10:59:58;;;;;;;8.85;5.30;;;;;;;;;;4349566;32;20162;-74
2021/05/08 11:02:45;;;;;;;11.48;6.00;;;;;;;;;;4361203;33;20227;-74
2021/05/08 11:05:34;;;;;;;11.50;5.55;;;;;;;;;;4348652;32;20601;-74
2021/05/08 11:07:59;;;;;;;10.13;5.90;;;;;;;;;;4361843;32;20143;-74
2021/05/08 11:10:34;;;;;;;9.93;5.60;;;;;;;;;;4361320;32;20246;-73
2021/05/08 11:13:12;;;;;;;9.80;5.65;;;;;;;;;;4347857;33;20166;-74
2021/05/08 11:15:50;;;;;;;12.50;6.85;;;;;;;;;;4350140;32;20194;-73
2021/05/08 11:20:58;;;;;;;9.35;5.50;;;;;;;;;;4355652;32;20148;-75
2021/05/08 11:23:24;;;;;;;10.50;6.12;;;;;;;;;;4353644;33;20525;-74
2021/05/08 11:25:49;;;;;;;10.18;5.80;;;;;;;;;;4350580;33;20162;-75
2021/05/08 11:28:15;;;;;;;10.67;6.33;;;;;;;;;;4348294;33;20166;-75
2021/05/08 11:30:53;;;;;;;11.27;6.30;;;;;;;;;;4348708;33;20215;-73
2021/05/08 11:33:26;;;;;;;11.63;6.47;;;;;;;;;;4348317;33;20588;-74
2021/05/08 11:36:03;;;;;;;11.12;7.30;;;;;;;;;;4353897;33;20213;-73
2021/05/08 11:38:29;;;;;;;12.20;6.10;;;;;;;;;;4349472;32;20544;-73
2021/05/08 11:40:54;;;;;;;11.85;6.70;;;;;;;;;;4347121;33;20215;-73
2021/05/08 11:43:26;;;;;;;9.65;6.47;;;;;;;;;;4348370;33;20204;-73
2021/05/08 11:45:51;;;;;;;9.50;6.80;;;;;;;;;;4347638;33;20266;-74
2021/05/08 11:48:16;;;;;;;12.18;7.57;;;;;;;;;;4347368;33;20139;-73
2021/05/08 11:50:46;;;;;;;10.70;7.40;;;;;;;;;;4345896;33;20271;-72
2021/05/08 11:53:15;;;;;;;11.75;6.75;;;;;;;;;;4347790;33;20127;-72
2021/05/08 11:55:43;;;;;;;11.18;6.28;;;;;;;;;;4346532;33;20161;-72
2021/05/08 11:58:08;;;;;;;7.50;5.87;;;;;;;;;;4347579;33;20576;-72
2021/05/08 12:00:34;;;;;;;9.38;6.28;;;;;;;;;;4348018;33;20135;-72
2021/05/08 12:03:06;;;;;;;9.10;6.35;;;;;;;;;;4345828;33;20127;-72
2021/05/08 12:05:39;;;;;;;9.57;6.00;;;;;;;;;;4345785;33;20544;-73
2021/05/08 12:08:04;;;;;;;9.02;6.18;;;;;;;;;;4347670;33;20210;-72
2021/05/08 12:10:33;;;;;;;10.60;6.28;;;;;;;;;;4350027;33;20131;-72
2021/05/08 12:12:58;;;;;;;11.90;6.33;;;;;;;;;;4348273;32;20248;-72
2021/05/08 12:15:23;;;;;;;10.02;6.62;;;;;;;;;;4361046;32;20127;-72
2021/05/08 12:17:49;;;;;;;10.15;7.12;;;;;;;;;;4359982;32;20444;-72
2021/05/08 12:20:18;;;;;;;9.30;6.75;;;;;;;;;;4362047;32;20484;-74
2021/05/08 12:22:43;;;;;;;11.60;7.57;;;;;;;;;;4350343;32;20136;-72
2021/05/08 12:25:16;;;;;;;11.18;6.82;;;;;;;;;;4333677;33;20159;-72
2021/05/08 12:27:41;;;;;;;11.82;7.82;;;;;;;;;;4331550;33;20218;-71
2021/05/08 12:30:06;;;;;;;11.80;7.12;;;;;;;;;;4345140;33;20224;-72
2021/05/08 12:32:31;;;;;;;9.50;7.50;;;;;;;;;;4345793;33;20128;-72
2021/05/08 12:34:57;;;;;;;11.23;7.72;;;;;;;;;;4345318;33;20178;-73
2021/05/08 12:37:22;;;;;;;12.65;7.53;;;;;;;;;;4346586;33;20136;-72
2021/05/08 12:39:48;;;;;;;12.55;8.10;;;;;;;;;;4346720;32;20201;-71
2021/05/08 12:42:13;;;;;;;11.30;8.45;;;;;;;;;;4352828;32;20155;-71
2021/05/08 12:44:43;;;;;;;14.23;9.00;;;;;;;;;;4359265;33;20166;-71
2021/05/08 12:47:18;;;;;;;13.02;9.82;;;;;;;;;;4361064;32;20589;-71
2021/05/08 12:50:02;;;;;;;19.10;14.20;;;;;;;;;;4360355;32;20587;-71
2021/05/08 12:52:27;;;;;;;18.73;11.60;;;;;;;;;;4361332;32;20204;-71
2021/05/08 12:54:52;;;;;;;13.95;9.75;;;;;;;;;;4360860;32;20147;-71
2021/05/08 12:57:18;;;;;;;15.68;9.82;;;;;;;;;;4360603;32;20600;-71
2021/05/08 12:59:54;;;;;;;13.55;9.63;;;;;;;;;;4346205;33;20190;-72
2021/05/08 13:02:25;;;;;;;17.30;11.82;;;;;;;;;;4361297;32;20505;-69
2021/05/08 13:04:51;;;;;;;16.42;10.45;;;;;;;;;;4361289;32;20151;-72
2021/05/08 13:07:23;;;;;;;17.23;10.55;;;;;;;;;;4358951;33;20158;-71
2021/05/08 13:09:49;;;;;;;16.92;10.32;;;;;;;;;;4346770;32;20256;-72
2021/05/08 13:12:14;;;;;;;13.55;9.02;;;;;;;;;;4359249;33;20142;-72
2021/05/08 13:14:39;;;;;;;14.30;10.52;;;;;;;;;;4359314;32;20169;-70
2021/05/08 13:17:07;;;;;;;16.73;11.02;;;;;;;;;;4351319;32;20207;-71
2021/05/08 13:19:32;;;;;;;18.67;12.20;;;;;;;;;;4358978;33;20276;-72
2021/05/08 13:21:57;;;;;;;17.92;11.70;;;;;;;;;;4359490;32;20291;-72
2021/05/08 13:24:23;;;;;;;18.52;11.48;;;;;;;;;;4358671;33;20216;-72
2021/05/08 13:26:48;;;;;;;15.03;11.63;;;;;;;;;;4345419;33;20295;-73
2021/05/08 13:29:14;;;;;;;20.73;12.50;;;;;;;;;;4346730;33;20159;-71
2021/05/08 13:31:39;;;;;;;18.33;11.12;;;;;;;;;;4345581;33;20166;-72
2021/05/08 13:34:04;;;;;;;18.02;11.98;;;;;;;;;;4359482;33;20290;-72
2021/05/08 13:36:29;;;;;;;22.00;13.77;;;;;;;;;;4345785;33;20252;-70
2021/05/08 13:38:54;;;;;;;19.83;12.43;;;;;;;;;;4359169;32;20730;-71
2021/05/08 13:41:19;;;;;;;17.73;12.13;;;;;;;;;;4346107;33;20685;-71
2021/05/08 13:43:45;;;;;;;19.90;13.18;;;;;;;;;;4342170;33;20158;-71
2021/05/08 13:46:10;;;;;;;18.25;13.70;;;;;;;;;;4359556;33;20162;-73
2021/05/08 13:48:37;;;;;;;15.30;10.80;;;;;;;;;;4357786;33;20566;-73
2021/05/08 13:51:02;;;;;;;17.73;11.05;;;;;;;;;;4359810;32;20139;-71
2021/05/08 13:53:27;;;;;;;14.45;10.10;;;;;;;;;;4363640;32;20240;-72
2021/05/08 13:55:52;;;;;;;15.70;9.75;;;;;;;;;;4361801;33;20127;-73
2021/05/08 13:58:18;;;;;;;12.05;8.60;;;;;;;;;;4362387;32;20321;-72
2021/05/08 14:00:43;;;;;;;11.57;8.82;;;;;;;;;;4360226;33;20265;-72
2021/05/08 14:03:08;;;;;;;12.25;9.15;;;;;;;;;;4363333;32;20127;-71
2021/05/08 14:05:33;;;;;;;11.45;8.32;;;;;;;;;;4361555;32;20201;-72
2021/05/08 14:07:58;;;;;;;12.70;9.02;;;;;;;;;;4362985;32;20552;-72
2021/05/08 14:10:24;;;;;;;11.02;8.77;;;;;;;;;;4362256;32;20162;-72
2021/05/08 14:12:49;;;;;;;13.88;9.05;;;;;;;;;;4363132;32;20228;-71
2021/05/08 14:15:14;;;;;;;12.60;6.20;;;;;;;;;;4363266;32;20128;-72
2021/05/08 14:17:39;;;;;;;10.02;6.57;;;;;;;;;;4362313;32;20213;-73
2021/05/08 14:20:08;;;;;;;8.48;6.20;;;;;;;;;;4363255;32;20158;-72
2021/05/08 14:22:35;;;;;;;10.27;6.72;;;;;;;;;;4362139;32;20128;-73
2021/05/08 14:25:01;;;;;;;9.00;6.87;;;;;;;;;;4363327;32;20158;-72
2021/05/08 14:27:26;;;;;;;8.20;6.57;;;;;;;;;;4360552;33;20127;-73
2021/05/08 14:29:52;;;;;;;11.20;7.30;;;;;;;;;;4363696;32;20127;-73
2021/05/08 14:32:17;;;;;;;10.15;6.90;;;;;;;;;;4363003;32;20139;-73
2021/05/08 14:34:42;;;;;;;11.73;6.85;;;;;;;;;;4350663;33;20206;-72
2021/05/08 14:37:07;;;;;;;8.73;6.85;;;;;;;;;;4347142;33;20197;-72
2021/05/08 14:39:32;;;;;;;13.00;6.78;;;;;;;;;;4355390;32;20258;-74
2021/05/08 14:41:58;;;;;;;9.35;7.45;;;;;;;;;;4361746;32;20167;-73
2021/05/08 14:44:23;;;;;;;8.88;6.30;;;;;;;;;;4348399;32;20523;-73
2021/05/08 14:46:48;;;;;;;10.25;6.37;;;;;;;;;;4349601;32;20254;-74
2021/05/08 14:49:13;;;;;;;11.68;6.95;;;;;;;;;;4361164;32;20370;-72
2021/05/08 14:51:39;;;;;;;10.77;6.80;;;;;;;;;;4348208;33;20558;-73
2021/05/08 14:54:04;;;;;;;9.00;6.70;;;;;;;;;;4360768;32;20131;-73
2021/05/08 14:56:29;;;;;;;7.60;5.28;;;;;;;;;;4362717;32;20228;-73
2021/05/08 14:58:54;;;;;;;8.75;5.85;;;;;;;;;;4361748;33;20135;-73
2021/05/08 15:01:20;;;;;;;12.57;6.07;;;;;;;;;;4363060;32;20311;-72
2021/05/08 15:03:45;;;;;;;8.02;5.60;;;;;;;;;;4360490;32;20206;-72
2021/05/08 15:06:10;;;;;;;9.32;6.70;;;;;;;;;;4350080;32;20556;-72
2021/05/08 15:08:35;;;;;;;8.02;6.28;;;;;;;;;;4346006;33;20356;-71
2021/05/08 15:11:00;;;;;;;7.82;6.10;;;;;;;;;;4346417;33;20551;-72
2021/05/08 15:13:26;;;;;;;6.90;5.80;;;;;;;;;;4346919;33;20128;-72
2021/05/08 15:15:51;;;;;;;8.57;6.07;;;;;;;;;;4347146;33;20246;-72
2021/05/08 15:18:19;;;;;;;8.13;5.95;;;;;;;;;;4355458;33;20186;-73
2021/05/08 15:20:44;;;;;;;12.37;6.75;;;;;;;;;;4359377;33;20151;-72
2021/05/08 15:23:10;;;;;;;8.20;6.18;;;;;;;;;;4346170;33;20155;-73
2021/05/08 15:25:35;;;;;;;11.05;6.45;;;;;;;;;;4337720;33;20159;-73
2021/05/08 15:28:00;;;;;;;9.82;6.25;;;;;;;;;;4358357;32;20225;-73